Time;durP1;ratioP1;P1;durP2;ratioP2;P2;SDS_P1;SDS_P2;PMS_P1;PMS_P2;Temp;Humidity;BMP_temperature;BMP_pressure;BME280_temperature;BME280_humidity;BME280_pressure;Samples;Min_cycle;Max_cycle;Signal;HPM_P1;HPM_P2
2021/09/28 00:01:34;;;;;;;1.65;0.60;;;16.60;49.50;;;;;;5073914;28;20273;-61
2021/09/28 00:04:05;;;;;;;1.13;0.57;;;16.60;49.50;;;;;;5073369;28;20234;-62
2021/09/28 00:06:37;;;;;;;1.20;0.70;;;16.70;49.50;;;;;;5083762;28;20225;-60
2021/09/28 00:09:08;;;;;;;0.68;0.65;;;16.70;49.40;;;;;;5087775;28;20513;-61
2021/09/28 00:11:38;;;;;;;2.15;0.70;;;16.80;49.50;;;;;;5073910;28;20286;-59
2021/09/28 00:14:08;;;;;;;0.77;0.52;;;16.80;49.50;;;;;;5074294;28;20273;-63
2021/09/28 00:16:39;;;;;;;1.83;0.95;;;16.80;49.70;;;;;;5082527;28;20429;-61
2021/09/28 00:19:09;;;;;;;1.80;0.80;;;16.90;50.00;;;;;;5094038;28;20297;-62
2021/09/28 00:21:41;;;;;;;1.63;0.73;;;16.90;50.00;;;;;;5075708;28;20234;-62
2021/09/28 00:24:12;;;;;;;2.28;0.70;;;17.00;50.00;;;;;;5072959;28;20240;-56
2021/09/28 00:26:42;;;;;;;1.42;0.70;;;17.10;50.00;;;;;;5081199;28;20202;-62
2021/09/28 00:29:13;;;;;;;2.10;0.90;;;17.10;49.90;;;;;;5084096;28;20282;-62
2021/09/28 00:31:43;;;;;;;1.67;0.77;;;17.10;49.80;;;;;;5063231;28;20235;-62
2021/09/28 00:34:14;;;;;;;2.75;1.00;;;17.20;49.80;;;;;;5073359;28;20240;-62
2021/09/28 00:36:46;;;;;;;0.98;0.70;;;17.20;49.70;;;;;;5083638;28;20197;-56
2021/09/28 00:39:16;;;;;;;1.25;0.70;;;17.20;49.70;;;;;;5092336;28;20299;-62
2021/09/28 00:41:47;;;;;;;2.20;0.50;;;17.30;49.60;;;;;;5055938;28;20246;-62
2021/09/28 00:44:17;;;;;;;1.23;0.70;;;17.30;49.60;;;;;;5051795;28;20294;-63
2021/09/28 00:46:48;;;;;;;1.48;0.60;;;17.30;49.50;;;;;;5074910;28;20285;-62
2021/09/28 00:49:19;;;;;;;2.83;0.65;;;17.40;49.50;;;;;;5068792;28;20239;-63
2021/09/28 00:51:51;;;;;;;1.85;0.85;;;17.50;49.40;;;;;;5053364;28;20199;-61
2021/09/28 00:54:22;;;;;;;1.40;0.60;;;17.50;49.40;;;;;;5057008;28;20679;-50
2021/09/28 00:56:52;;;;;;;1.90;0.70;;;17.50;49.30;;;;;;5075754;28;20590;-62
2021/09/28 00:59:23;;;;;;;1.38;0.60;;;17.50;49.30;;;;;;5072672;28;20400;-59
2021/09/28 01:01:53;;;;;;;2.40;0.70;;;17.60;49.30;;;;;;5071373;28;20202;-49
2021/09/28 01:04:24;;;;;;;1.30;0.52;;;17.60;49.20;;;;;;5072595;28;20241;-54
2021/09/28 01:06:57;;;;;;;1.40;0.68;;;17.70;49.20;;;;;;5084540;28;20281;-61
2021/09/28 01:09:27;;;;;;;1.05;0.70;;;17.70;49.10;;;;;;5092781;28;20257;-62
2021/09/28 01:11:58;;;;;;;1.27;0.60;;;17.70;49.00;;;;;;5092340;28;20571;-62
2021/09/28 01:14:28;;;;;;;1.58;0.60;;;17.80;49.00;;;;;;5092857;28;20285;-62
2021/09/28 01:16:59;;;;;;;2.60;0.65;;;17.80;49.00;;;;;;5087858;28;20685;-58
2021/09/28 01:19:29;;;;;;;2.60;0.70;;;17.80;48.90;;;;;;5092564;28;20256;-60
2021/09/28 01:22:01;;;;;;;0.88;0.52;;;17.90;48.90;;;;;;5091604;28;20289;-52
2021/09/28 01:24:32;;;;;;;1.48;0.70;;;17.90;48.90;;;;;;5092030;28;20277;-59
2021/09/28 01:27:02;;;;;;;1.95;0.70;;;18.00;48.80;;;;;;5090232;28;20225;-59
2021/09/28 01:29:32;;;;;;;0.55;0.40;;;17.90;48.80;;;;;;5051738;28;20251;-62
2021/09/28 01:32:03;;;;;;;1.83;0.68;;;18.00;48.80;;;;;;5053325;28;20358;-63
2021/09/28 01:34:33;;;;;;;2.78;0.70;;;18.00;48.70;;;;;;5071614;28;20233;-63
2021/09/28 01:37:06;;;;;;;1.95;0.50;;;18.00;48.70;;;;;;5085877;28;20239;-63
2021/09/28 01:39:37;;;;;;;1.48;0.52;;;18.10;48.70;;;;;;5091949;28;20248;-62
2021/09/28 01:42:08;;;;;;;1.90;0.55;;;18.10;48.60;;;;;;5092158;28;20222;-59
2021/09/28 01:44:39;;;;;;;1.70;0.60;;;18.10;48.50;;;;;;5091997;28;20741;-61
2021/09/28 01:47:09;;;;;;;1.33;0.60;;;18.10;48.40;;;;;;5091489;28;20305;-59
2021/09/28 01:49:40;;;;;;;0.85;0.50;;;18.20;48.40;;;;;;5092201;28;20245;-61
2021/09/28 01:52:12;;;;;;;1.15;0.65;;;18.20;48.30;;;;;;5091724;28;20626;-57
2021/09/28 01:54:43;;;;;;;2.05;0.70;;;18.20;48.30;;;;;;5073493;28;20238;-62
2021/09/28 01:57:13;;;;;;;2.25;0.60;;;18.30;48.20;;;;;;5086351;28;20281;-61
2021/09/28 01:59:43;;;;;;;2.05;0.70;;;18.30;48.10;;;;;;5092119;28;20301;-61
2021/09/28 02:02:14;;;;;;;1.88;0.70;;;18.30;48.10;;;;;;5062667;28;20246;-60
2021/09/28 02:04:44;;;;;;;2.60;0.93;;;18.40;48.00;;;;;;5070881;28;20291;-61
2021/09/28 02:07:17;;;;;;;0.60;0.40;;;18.40;48.00;;;;;;5085798;28;20298;-61
2021/09/28 02:09:47;;;;;;;0.85;0.63;;;18.40;47.90;;;;;;5092408;28;20694;-60
2021/09/28 02:12:17;;;;;;;2.53;0.60;;;18.40;47.90;;;;;;5091238;28;20672;-53
2021/09/28 02:14:48;;;;;;;0.90;0.40;;;18.50;47.90;;;;;;5091145;28;20338;-60
2021/09/28 02:17:18;;;;;;;1.85;0.77;;;18.50;47.80;;;;;;5090736;28;20634;-62
2021/09/28 02:19:49;;;;;;;1.67;0.63;;;18.50;47.70;;;;;;5091189;28;20724;-60
2021/09/28 02:22:21;;;;;;;1.75;0.45;;;18.50;47.70;;;;;;5071192;28;20278;-62
2021/09/28 02:24:51;;;;;;;0.75;0.70;;;18.60;47.80;;;;;;5071281;28;20658;-58
2021/09/28 02:27:22;;;;;;;1.38;0.50;;;18.60;47.80;;;;;;5087485;28;20689;-61
2021/09/28 02:29:52;;;;;;;1.95;0.60;;;18.60;47.80;;;;;;5091432;28;20230;-62
2021/09/28 02:32:23;;;;;;;1.23;0.50;;;18.60;47.70;;;;;;5087321;28;20698;-62
2021/09/28 02:34:53;;;;;;;1.15;0.60;;;18.70;47.80;;;;;;5071038;28;20264;-62
2021/09/28 02:37:25;;;;;;;4.20;0.80;;;18.70;47.70;;;;;;5087431;28;20251;-62
2021/09/28 02:39:56;;;;;;;0.85;0.50;;;18.80;47.60;;;;;;5056989;28;20277;-62
2021/09/28 02:42:26;;;;;;;0.80;0.40;;;18.80;47.60;;;;;;5050545;28;20249;-61
2021/09/28 02:44:57;;;;;;;0.73;0.30;;;18.80;47.70;;;;;;5050724;28;20226;-62
2021/09/28 02:47:27;;;;;;;0.65;0.50;;;18.80;47.60;;;;;;5083492;28;20551;-62
2021/09/28 02:49:58;;;;;;;2.17;0.77;;;18.90;47.60;;;;;;5091260;28;20730;-54
2021/09/28 02:52:30;;;;;;;1.23;0.60;;;18.90;47.60;;;;;;5089666;28;20645;-62
2021/09/28 02:55:01;;;;;;;1.02;0.40;;;18.90;47.60;;;;;;5050398;28;20234;-60
2021/09/28 02:57:31;;;;;;;0.95;0.40;;;19.00;47.60;;;;;;5084016;28;20674;-62
2021/09/28 03:00:01;;;;;;;1.63;0.70;;;19.00;47.50;;;;;;5090619;28;20226;-61
2021/09/28 03:02:32;;;;;;;1.05;0.68;;;19.00;47.50;;;;;;5084450;28;20543;-62
2021/09/28 03:05:02;;;;;;;0.98;0.57;;;19.10;47.50;;;;;;5070617;28;20249;-60
2021/09/28 03:07:35;;;;;;;0.73;0.60;;;19.10;47.40;;;;;;5088300;28;20624;-62
2021/09/28 03:10:05;;;;;;;1.15;0.50;;;19.10;47.40;;;;;;5082076;28;20226;-61
2021/09/28 03:12:36;;;;;;;0.55;0.40;;;19.20;47.30;;;;;;5070920;28;20659;-61
2021/09/28 03:15:07;;;;;;;0.60;0.55;;;19.20;47.90;;;;;;5068277;28;20234;-61
2021/09/28 03:17:38;;;;;;;1.48;0.70;;;19.20;47.20;;;;;;5088086;28;20640;-61
2021/09/28 03:20:09;;;;;;;1.58;0.55;;;19.20;47.00;;;;;;5090116;28;20631;-62
2021/09/28 03:22:41;;;;;;;1.30;0.55;;;19.30;47.00;;;;;;5090951;28;20193;-62
2021/09/28 03:25:12;;;;;;;0.55;0.50;;;19.30;47.20;;;;;;5090526;28;20226;-62
2021/09/28 03:27:42;;;;;;;0.90;0.60;;;19.30;47.10;;;;;;5089932;28;20636;-57
2021/09/28 03:30:14;;;;;;;0.77;0.52;;;19.40;47.10;;;;;;5089566;28;20674;-61
2021/09/28 03:32:44;;;;;;;1.05;0.60;;;19.40;47.10;;;;;;5081796;28;20279;-62
2021/09/28 03:35:15;;;;;;;1.05;0.70;;;19.40;46.80;;;;;;5070616;28;20230;-62
2021/09/28 03:37:52;;;;;;;1.30;0.68;;;19.50;46.80;;;;;;5088479;28;20486;-58
2021/09/28 03:40:23;;;;;;;1.92;0.50;;;19.50;46.70;;;;;;5090325;28;20194;-58
2021/09/28 03:42:53;;;;;;;1.15;0.60;;;19.50;46.70;;;;;;5089475;28;20225;-62
2021/09/28 03:45:24;;;;;;;0.52;0.52;;;19.50;46.80;;;;;;5090432;28;20237;-54
2021/09/28 03:47:54;;;;;;;0.80;0.50;;;19.60;46.80;;;;;;5086962;28;20260;-61
2021/09/28 03:50:25;;;;;;;1.25;0.73;;;19.60;46.70;;;;;;5070694;28;20283;-62
2021/09/28 03:52:57;;;;;;;1.48;0.60;;;19.60;46.70;;;;;;5069748;28;20233;-62
2021/09/28 03:55:28;;;;;;;1.00;0.55;;;19.60;46.70;;;;;;5068577;28;20242;-62
2021/09/28 03:57:59;;;;;;;1.08;0.60;;;19.70;46.70;;;;;;5070081;28;20319;-57
2021/09/28 04:00:29;;;;;;;1.77;0.60;;;19.70;46.60;;;;;;5084310;28;20650;-62
2021/09/28 04:03:00;;;;;;;1.70;0.55;;;19.70;46.60;;;;;;5077503;28;20651;-61
2021/09/28 04:05:30;;;;;;;0.85;0.52;;;19.80;46.60;;;;;;5069747;28;20881;-61
2021/09/28 04:08:03;;;;;;;1.52;0.75;;;19.80;46.50;;;;;;5070078;28;20298;-61
2021/09/28 04:10:35;;;;;;;0.88;0.60;;;19.80;46.20;;;;;;5078102;28;20694;-62
2021/09/28 04:13:07;;;;;;;1.88;0.50;;;19.80;46.10;;;;;;5069146;28;20583;-61
2021/09/28 04:15:41;;;;;;;1.75;0.60;;;19.80;45.90;;;;;;5069278;28;20218;-62
2021/09/28 04:18:11;;;;;;;1.85;0.68;;;19.80;46.00;;;;;;5050287;28;20730;-61
2021/09/28 04:20:42;;;;;;;1.23;0.70;;;19.90;45.90;;;;;;5084700;28;20214;-57
2021/09/28 04:23:14;;;;;;;0.85;0.60;;;19.90;45.80;;;;;;5073220;28;20207;-62
2021/09/28 04:25:45;;;;;;;2.47;0.70;;;19.90;46.00;;;;;;5071449;28;20191;-61
2021/09/28 04:28:16;;;;;;;1.52;0.52;;;19.90;45.80;;;;;;5075198;28;20218;-58
2021/09/28 04:30:47;;;;;;;1.17;0.68;;;20.00;45.90;;;;;;5093871;28;20202;-61
2021/09/28 04:33:17;;;;;;;1.77;0.63;;;20.00;45.80;;;;;;5079095;28;20622;-60
2021/09/28 04:35:48;;;;;;;1.02;0.68;;;20.00;45.80;;;;;;5073765;28;20195;-61
2021/09/28 04:38:20;;;;;;;1.05;0.50;;;20.00;45.80;;;;;;5072906;28;20276;-59
2021/09/28 04:40:51;;;;;;;2.05;0.50;;;20.00;45.80;;;;;;5082319;28;20223;-61
2021/09/28 04:43:21;;;;;;;0.57;0.40;;;20.00;45.80;;;;;;5056231;28;20192;-61
2021/09/28 04:45:52;;;;;;;1.63;0.77;;;20.00;45.60;;;;;;5066197;28;20633;-61
2021/09/28 04:48:22;;;;;;;1.25;0.50;;;20.00;45.60;;;;;;5074885;28;20222;-61
2021/09/28 04:50:53;;;;;;;0.60;0.50;;;20.10;45.60;;;;;;5094096;28;20210;-61
2021/09/28 04:53:26;;;;;;;1.80;0.65;;;20.10;45.60;;;;;;5094280;28;20256;-61
2021/09/28 04:55:56;;;;;;;2.60;0.63;;;20.10;45.60;;;;;;5093771;28;20296;-61
2021/09/28 04:58:27;;;;;;;0.95;0.60;;;20.10;45.60;;;;;;5093729;28;20556;-61
2021/09/28 05:00:58;;;;;;;1.92;0.70;;;20.10;45.60;;;;;;5093888;28;20218;-58
2021/09/28 05:03:28;;;;;;;1.35;0.52;;;20.10;45.60;;;;;;5079942;28;20195;-61
2021/09/28 05:05:59;;;;;;;0.93;0.50;;;20.10;45.60;;;;;;5073158;28;20206;-59
2021/09/28 05:08:31;;;;;;;0.60;0.50;;;20.10;45.60;;;;;;5072982;28;20587;-56
2021/09/28 05:11:02;;;;;;;2.17;0.68;;;20.10;45.50;;;;;;5072866;28;20651;-61
2021/09/28 05:13:32;;;;;;;1.13;0.60;;;20.10;45.60;;;;;;5072685;28;20198;-61
2021/09/28 05:16:03;;;;;;;1.92;0.47;;;20.10;45.60;;;;;;5073435;28;20206;-57
2021/09/28 05:18:34;;;;;;;1.05;0.52;;;20.10;45.50;;;;;;5073116;28;20222;-60
2021/09/28 05:21:04;;;;;;;0.70;0.70;;;20.10;45.50;;;;;;5073003;28;20218;-61
2021/09/28 05:23:37;;;;;;;1.00;0.60;;;20.10;45.60;;;;;;5072446;28;20190;-60
2021/09/28 05:26:07;;;;;;;1.08;0.55;;;20.10;45.50;;;;;;5072712;28;20703;-61
2021/09/28 05:28:38;;;;;;;0.80;0.50;;;20.10;45.60;;;;;;5072776;28;20221;-59
2021/09/28 05:31:08;;;;;;;0.52;0.50;;;20.10;45.60;;;;;;5073111;28;20251;-60
2021/09/28 05:33:39;;;;;;;1.13;0.60;;;20.10;45.60;;;;;;5073165;28;20225;-57
2021/09/28 05:36:10;;;;;;;0.65;0.43;;;20.20;45.60;;;;;;5061927;28;20207;-60
2021/09/28 05:38:42;;;;;;;0.52;0.35;;;20.20;45.70;;;;;;5072815;28;20226;-53
2021/09/28 05:41:13;;;;;;;0.65;0.50;;;20.20;45.60;;;;;;5071739;28;20279;-57
2021/09/28 05:43:43;;;;;;;1.92;0.70;;;20.20;45.60;;;;;;5071955;28;20668;-60
2021/09/28 05:46:14;;;;;;;0.93;0.57;;;20.20;45.70;;;;;;5087054;28;20290;-60
2021/09/28 05:48:45;;;;;;;1.20;0.60;;;20.20;45.80;;;;;;5092049;28;20221;-60
2021/09/28 05:51:18;;;;;;;1.30;0.70;;;20.20;45.80;;;;;;5091764;28;20190;-54
2021/09/28 05:53:51;;;;;;;1.13;0.80;;;20.10;45.90;;;;;;5091564;28;20236;-60
2021/09/28 05:56:21;;;;;;;1.15;0.70;;;20.20;46.10;;;;;;5091467;28;20245;-57
2021/09/28 05:58:52;;;;;;;2.28;0.85;;;20.20;46.10;;;;;;5090873;28;20241;-60
2021/09/28 06:01:22;;;;;;;1.95;0.90;;;20.20;46.10;;;;;;5092435;28;20667;-60
2021/09/28 06:03:53;;;;;;;1.40;0.80;;;20.10;46.10;;;;;;5074042;28;20205;-58
2021/09/28 06:06:27;;;;;;;2.75;1.23;;;20.20;46.10;;;;;;5087244;28;20207;-58
2021/09/28 06:08:59;;;;;;;2.50;1.40;;;20.10;46.00;;;;;;5091293;28;20260;-60
2021/09/28 06:11:30;;;;;;;2.42;1.08;;;20.10;46.00;;;;;;5090737;28;20258;-55
2021/09/28 06:14:00;;;;;;;1.45;1.05;;;20.10;45.90;;;;;;5078369;28;20236;-58
2021/09/28 06:16:30;;;;;;;2.05;1.00;;;20.20;46.00;;;;;;5087460;28;20226;-60
2021/09/28 06:19:01;;;;;;;1.88;1.17;;;20.10;45.90;;;;;;5092097;28;20246;-56
2021/09/28 06:21:31;;;;;;;1.42;1.05;;;20.10;45.90;;;;;;5091834;28;20246;-60
2021/09/28 06:24:03;;;;;;;2.25;1.02;;;20.10;46.00;;;;;;5092295;28;20233;-55
2021/09/28 06:26:34;;;;;;;1.80;1.00;;;20.00;45.90;;;;;;5092579;28;20282;-60
2021/09/28 06:29:04;;;;;;;1.92;1.10;;;20.10;46.00;;;;;;5092134;28;20674;-55
2021/09/28 06:31:35;;;;;;;0.95;0.90;;;20.00;46.00;;;;;;5092121;28;20206;-56
2021/09/28 06:34:05;;;;;;;1.13;0.98;;;20.00;46.00;;;;;;5073135;28;20234;-55
2021/09/28 06:36:36;;;;;;;2.67;1.30;;;19.90;46.00;;;;;;5072135;28;20230;-56
2021/09/28 06:39:08;;;;;;;1.60;1.10;;;20.00;46.10;;;;;;5071677;28;20307;-59
2021/09/28 06:41:39;;;;;;;1.92;1.02;;;19.90;46.10;;;;;;5070960;28;20223;-59
2021/09/28 06:44:09;;;;;;;2.45;1.20;;;19.90;46.10;;;;;;5067392;28;20628;-59
2021/09/28 06:46:43;;;;;;;1.85;1.17;;;19.90;46.10;;;;;;5067841;28;20222;-55
2021/09/28 06:49:13;;;;;;;2.47;1.67;;;19.80;46.10;;;;;;5070805;28;20257;-52
2021/09/28 06:51:44;;;;;;;1.92;1.42;;;19.80;46.10;;;;;;5070434;28;20198;-59
2021/09/28 06:54:16;;;;;;;3.03;1.77;;;19.80;46.10;;;;;;5070500;28;20222;-59
2021/09/28 06:56:46;;;;;;;3.15;1.90;;;19.80;46.10;;;;;;5071290;28;20231;-51
2021/09/28 06:59:18;;;;;;;1.63;1.40;;;19.70;46.10;;;;;;5070869;28;20298;-55
2021/09/28 07:01:48;;;;;;;3.58;1.90;;;19.80;46.10;;;;;;5071067;28;20765;-58
2021/09/28 07:04:19;;;;;;;2.10;1.60;;;19.70;46.10;;;;;;5051027;28;20290;-59
2021/09/28 07:06:50;;;;;;;1.73;1.52;;;19.60;46.10;;;;;;5051089;28;20200;-59
2021/09/28 07:09:22;;;;;;;2.30;1.80;;;19.60;46.10;;;;;;5051069;28;20215;-57
2021/09/28 07:11:53;;;;;;;2.42;1.60;;;19.60;46.10;;;;;;5051016;28;20245;-60
2021/09/28 07:14:23;;;;;;;2.00;1.60;;;19.60;46.10;;;;;;5051396;28;20249;-59
2021/09/28 07:16:53;;;;;;;1.98;1.60;;;19.50;46.10;;;;;;5050480;28;20278;-58
2021/09/28 07:19:24;;;;;;;2.97;1.50;;;19.50;46.20;;;;;;5050453;28;20219;-58
2021/09/28 07:21:54;;;;;;;2.97;1.60;;;19.50;46.30;;;;;;5050463;28;20310;-53
2021/09/28 07:24:27;;;;;;;2.03;1.45;;;19.50;46.40;;;;;;5050541;28;20238;-58
2021/09/28 07:26:57;;;;;;;3.53;1.80;;;19.40;46.40;;;;;;5063343;28;20222;-58
2021/09/28 07:29:27;;;;;;;5.45;1.70;;;19.40;46.50;;;;;;5068080;28;20257;-59
2021/09/28 07:31:58;;;;;;;2.15;1.45;;;19.40;46.50;;;;;;5070694;28;20231;-55
2021/09/28 07:34:31;;;;;;;3.95;1.80;;;19.30;46.50;;;;;;5070662;28;20199;-55
2021/09/28 07:37:01;;;;;;;2.60;1.85;;;19.30;46.60;;;;;;5071117;28;20209;-58
2021/09/28 07:39:33;;;;;;;1.80;1.60;;;19.30;46.50;;;;;;5070683;28;20302;-59
2021/09/28 07:42:05;;;;;;;2.50;1.55;;;19.20;46.50;;;;;;5070964;28;20299;-58
2021/09/28 07:44:35;;;;;;;2.47;1.50;;;19.20;46.50;;;;;;5071086;28;20674;-58
2021/09/28 07:47:06;;;;;;;2.03;1.58;;;19.20;46.50;;;;;;5070931;28;20282;-59
2021/09/28 07:50:09;;;;;;;2.05;1.80;;;19.20;46.60;;;;;;5070776;28;20265;-58
2021/09/28 07:52:40;;;;;;;2.50;1.80;;;19.10;46.60;;;;;;5070826;28;20610;-56
2021/09/28 07:55:13;;;;;;;2.63;2.03;;;19.00;46.50;;;;;;5070986;28;20206;-58
2021/09/28 07:57:43;;;;;;;2.95;1.85;;;19.00;46.50;;;;;;5070837;28;20234;-58
2021/09/28 08:00:14;;;;;;;3.53;1.80;;;19.00;46.60;;;;;;5072253;28;20202;-58
2021/09/28 08:02:45;;;;;;;2.00;1.80;;;19.00;46.60;;;;;;5074910;28;20291;-59
2021/09/28 08:05:15;;;;;;;2.33;2.00;;;18.90;46.60;;;;;;5074288;28;20194;-54
2021/09/28 08:07:46;;;;;;;2.47;1.92;;;18.80;46.60;;;;;;5074159;28;20274;-57
2021/09/28 08:10:18;;;;;;;2.47;1.98;;;18.80;46.70;;;;;;5074397;28;20727;-58
2021/09/28 08:12:49;;;;;;;2.05;1.70;;;18.80;46.70;;;;;;5074488;28;20725;-58
2021/09/28 08:15:19;;;;;;;2.65;1.85;;;18.80;46.80;;;;;;5074302;28;20241;-58
2021/09/28 08:17:50;;;;;;;2.63;1.80;;;18.70;46.80;;;;;;5074340;28;20422;-58
2021/09/28 08:20:22;;;;;;;1.70;1.60;;;18.70;46.80;;;;;;5073881;28;20607;-58
2021/09/28 08:22:52;;;;;;;2.22;1.90;;;18.70;46.80;;;;;;5073896;28;20234;-58
2021/09/28 08:25:33;;;;;;;2.25;1.80;;;18.60;46.70;;;;;;5074054;28;20198;-58
2021/09/28 08:30:50;;;;;;;2.15;1.95;;;18.60;46.80;;;;;;5074555;28;20191;-55
2021/09/28 08:33:21;;;;;;;2.83;1.70;;;18.50;46.70;;;;;;5074213;28;20206;-57
2021/09/28 08:35:51;;;;;;;2.72;1.95;;;18.50;46.80;;;;;;5074154;28;20191;-57
2021/09/28 08:38:22;;;;;;;1.95;1.75;;;18.40;46.80;;;;;;5073644;28;20226;-48
2021/09/28 08:40:54;;;;;;;3.75;1.90;;;18.40;46.80;;;;;;5073457;28;20198;-58
2021/09/28 08:43:25;;;;;;;1.95;1.52;;;18.30;46.80;;;;;;5066446;28;20238;-57
2021/09/28 08:45:56;;;;;;;1.63;1.52;;;18.40;46.90;;;;;;5073553;28;20207;-57
2021/09/28 08:49:14;;;;;;;2.25;1.80;;;18.30;46.90;;;;;;5073613;28;20222;-57
2021/09/28 08:51:45;;;;;;;2.90;1.60;;;18.30;46.90;;;;;;5073742;28;20198;-57
2021/09/28 08:54:15;;;;;;;1.55;1.45;;;18.30;47.40;;;;;;5073660;28;20202;-57
2021/09/28 08:56:48;;;;;;;1.77;1.65;;;18.20;46.90;;;;;;5073701;28;20720;-58
2021/09/28 08:59:18;;;;;;;2.08;1.80;;;18.20;47.00;;;;;;5072249;28;20211;-58
2021/09/28 09:02:00;;;;;;;2.10;1.75;;;18.20;47.00;;;;;;5074220;28;20748;-60
2021/09/28 09:04:31;;;;;;;2.00;1.80;;;18.10;47.10;;;;;;5053752;28;20225;-58
2021/09/28 09:07:01;;;;;;;2.25;1.70;;;18.10;47.10;;;;;;5053708;28;20196;-58
2021/09/28 09:09:32;;;;;;;1.73;1.63;;;18.10;47.10;;;;;;5053156;28;20223;-54
2021/09/28 09:12:04;;;;;;;1.90;1.50;;;18.10;47.10;;;;;;5052980;28;20200;-58
2021/09/28 09:14:35;;;;;;;2.15;1.70;;;18.00;47.10;;;;;;5061147;28;20248;-58
2021/09/28 09:17:06;;;;;;;2.67;1.77;;;18.00;47.10;;;;;;5073331;28;20206;-58
2021/09/28 09:19:36;;;;;;;1.98;1.80;;;18.00;47.20;;;;;;5071248;28;20630;-58
2021/09/28 09:22:07;;;;;;;2.22;1.80;;;17.90;47.20;;;;;;5072732;28;20198;-55
2021/09/28 09:24:49;;;;;;;2.92;2.10;;;17.90;47.20;;;;;;5070409;28;20202;-54
2021/09/28 09:27:29;;;;;;;2.25;1.98;;;17.80;47.20;;;;;;5072276;28;20194;-58
2021/09/28 09:30:20;;;;;;;;;;;;;;;;;;;;;
2021/09/28 09:33:01;;;;;;;2.38;1.77;;;17.80;47.20;;;;;;5046162;28;20203;-57
2021/09/28 09:35:32;;;;;;;2.45;1.83;;;17.80;47.20;;;;;;5076993;28;20348;-55
2021/09/28 09:38:09;;;;;;;2.70;2.17;;;17.70;47.20;;;;;;5071651;28;20214;-57
2021/09/28 09:40:40;;;;;;;2.15;1.60;;;17.70;47.20;;;;;;5070424;28;20198;-57
2021/09/28 09:43:13;;;;;;;3.17;2.42;;;17.70;47.20;;;;;;5071010;28;20226;-57
2021/09/28 09:45:44;;;;;;;2.83;2.30;;;17.70;47.30;;;;;;5090624;28;20206;-58
2021/09/28 09:48:53;;;;;;;2.67;2.13;;;17.60;47.20;;;;;;5074398;28;20219;-55
2021/09/28 09:51:24;;;;;;;3.08;2.40;;;17.60;47.30;;;;;;5071634;28;20187;-58
2021/09/28 09:54:03;;;;;;;3.45;2.78;;;17.60;47.30;;;;;;5075252;28;20653;-57
2021/09/28 09:56:50;;;;;;;2.75;2.22;;;17.50;47.30;;;;;;5092291;28;20716;-57
2021/09/28 09:59:23;;;;;;;4.22;2.53;;;17.50;47.30;;;;;;5092214;28;20221;-58
2021/09/28 10:01:53;;;;;;;2.90;2.28;;;17.40;47.30;;;;;;5077707;28;20587;-54
2021/09/28 10:04:24;;;;;;;4.32;2.53;;;17.40;47.30;;;;;;5078466;28;20228;-58
2021/09/28 10:06:54;;;;;;;2.80;2.08;;;17.40;47.40;;;;;;5091528;28;20198;-57
2021/09/28 10:09:26;;;;;;;4.43;2.53;;;17.30;47.40;;;;;;5090787;28;20616;-58
2021/09/28 10:11:57;;;;;;;2.30;1.92;;;17.30;47.40;;;;;;5092444;28;20198;-58
2021/09/28 10:14:36;;;;;;;2.35;2.15;;;17.30;47.40;;;;;;5080044;28;20544;-48
2021/09/28 10:17:47;;;;;;;3.72;2.65;;;17.30;47.50;;;;;;5051552;28;20203;-57
2021/09/28 10:20:32;;;;;;;6.90;3.00;;;17.20;47.40;;;;;;5027105;28;20199;-56
2021/09/28 10:23:03;;;;;;;3.35;2.30;;;17.20;47.40;;;;;;5050307;28;20253;-56
2021/09/28 10:25:45;;;;;;;4.65;2.35;;;17.20;47.40;;;;;;5087091;28;20448;-57
2021/09/28 10:28:42;;;;;;;3.42;2.60;;;17.10;47.60;;;;;;5091526;28;20214;-58
2021/09/28 10:31:31;;;;;;;4.43;2.50;;;17.10;47.50;;;;;;5092063;28;20234;-58
2021/09/28 10:34:02;;;;;;;3.35;2.55;;;17.10;47.50;;;;;;5078106;28;20221;-57
2021/09/28 10:36:33;;;;;;;4.07;2.97;;;17.00;47.50;;;;;;5091474;28;20855;-58
2021/09/28 10:39:04;;;;;;;3.15;2.53;;;17.00;47.60;;;;;;5070884;28;20233;-57
2021/09/28 10:41:50;;;;;;;4.50;2.40;;;17.00;47.60;;;;;;5065862;28;20183;-58
2021/09/28 10:44:52;;;;;;;3.65;2.53;;;16.90;47.60;;;;;;5077446;28;20580;-57
2021/09/28 10:47:52;;;;;;;3.60;2.83;;;16.90;47.60;;;;;;5091167;28;20201;-56
2021/09/28 10:50:28;;;;;;;4.30;2.90;;;16.90;47.70;;;;;;5089744;28;20225;-57
2021/09/28 10:52:58;;;;;;;3.42;2.40;;;16.90;47.70;;;;;;5090117;28;20284;-58
2021/09/28 10:55:55;;;;;;;3.35;2.55;;;16.90;47.80;;;;;;5089888;28;20238;-58
2021/09/28 10:58:26;;;;;;;2.75;2.40;;;16.80;47.70;;;;;;5090999;28;20218;-58
2021/09/28 11:01:14;;;;;;;2.83;2.20;;;16.80;47.80;;;;;;5091096;28;20685;-56
2021/09/28 11:04:07;;;;;;;3.88;2.67;;;16.70;47.80;;;;;;5077087;28;20249;-57
2021/09/28 11:07:01;;;;;;;3.40;2.50;;;16.70;47.80;;;;;;5076109;28;20242;-58
2021/09/28 11:09:46;;;;;;;3.67;2.78;;;16.70;47.90;;;;;;5070519;28;20674;-55
2021/09/28 11:12:17;;;;;;;2.42;2.22;;;16.70;47.90;;;;;;5068476;28;20712;-58
2021/09/28 11:14:48;;;;;;;2.92;2.53;;;16.60;47.90;;;;;;5071028;28;20206;-57
2021/09/28 11:17:21;;;;;;;3.78;3.03;;;16.60;47.90;;;;;;5071435;28;20567;-58
2021/09/28 11:19:54;;;;;;;3.47;2.60;;;16.60;47.90;;;;;;5071030;28;20634;-58
2021/09/28 11:22:24;;;;;;;4.55;3.00;;;16.60;48.00;;;;;;5070857;28;20194;-58
2021/09/28 11:24:55;;;;;;;3.03;2.30;;;16.50;47.90;;;;;;5070882;28;20583;-53
2021/09/28 11:27:25;;;;;;;2.55;2.10;;;16.50;48.00;;;;;;5071652;28;20690;-52
2021/09/28 11:29:56;;;;;;;5.05;2.65;;;16.50;48.00;;;;;;5071069;28;20222;-55
2021/09/28 11:32:26;;;;;;;2.83;2.30;;;16.50;48.10;;;;;;5070823;28;20214;-53
2021/09/28 11:35:02;;;;;;;3.05;2.58;;;16.50;48.10;;;;;;5075262;28;20230;-56
2021/09/28 11:37:33;;;;;;;3.33;2.60;;;16.50;48.10;;;;;;5077658;28;20613;-58
2021/09/28 11:40:03;;;;;;;2.80;2.38;;;16.40;48.00;;;;;;5075586;28;20278;-58
2021/09/28 11:42:35;;;;;;;2.58;2.20;;;16.40;48.00;;;;;;5074411;28;20222;-58
2021/09/28 11:45:06;;;;;;;2.88;2.25;;;16.40;48.10;;;;;;5075654;28;20609;-58
2021/09/28 11:47:40;;;;;;;3.20;2.40;;;16.40;48.10;;;;;;5076197;28;20237;-54
2021/09/28 11:50:13;;;;;;;3.42;2.45;;;16.40;48.10;;;;;;5074390;28;20182;-58
2021/09/28 11:52:43;;;;;;;3.60;2.38;;;16.30;48.10;;;;;;5076568;28;20218;-57
2021/09/28 11:55:14;;;;;;;3.65;2.78;;;16.30;48.10;;;;;;5076497;28;20234;-57
2021/09/28 11:57:44;;;;;;;3.80;2.45;;;16.30;48.10;;;;;;5061686;28;20253;-58
2021/09/28 12:00:15;;;;;;;3.75;2.67;;;16.30;48.20;;;;;;5059308;28;20226;-56
2021/09/28 12:02:46;;;;;;;2.65;2.30;;;16.20;48.20;;;;;;5056985;28;20244;-56
2021/09/28 12:08:08;;;;;;;3.75;2.50;;;16.20;48.20;;;;;;5077519;28;20263;-58
2021/09/28 12:10:39;;;;;;;2.83;2.40;;;16.10;48.10;;;;;;5077527;28;20297;-58
2021/09/28 12:13:20;;;;;;;3.60;2.47;;;16.10;48.10;;;;;;5077373;28;20237;-58
2021/09/28 12:16:07;;;;;;;3.38;2.35;;;16.10;48.20;;;;;;5077410;28;20665;-53
2021/09/28 12:18:37;;;;;;;3.63;2.05;;;16.10;48.70;;;;;;5077241;28;20242;-58
2021/09/28 12:21:24;;;;;;;4.53;2.20;;;16.10;48.20;;;;;;5077136;28;20250;-58
2021/09/28 12:24:19;;;;;;;3.83;2.30;;;16.00;48.20;;;;;;5077186;28;20279;-58
2021/09/28 12:26:51;;;;;;;2.85;2.15;;;16.00;48.20;;;;;;5076844;28;20607;-58
2021/09/28 12:29:22;;;;;;;2.75;2.28;;;16.00;48.20;;;;;;5076536;28;20268;-58
2021/09/28 12:31:52;;;;;;;2.25;2.05;;;16.00;48.20;;;;;;5076900;28;20234;-55
2021/09/28 12:34:23;;;;;;;2.80;2.08;;;15.90;48.20;;;;;;5077031;28;20238;-58
2021/09/28 12:36:55;;;;;;;2.85;2.25;;;15.90;48.20;;;;;;5077071;28;20250;-58
2021/09/28 12:39:29;;;;;;;2.13;1.88;;;15.90;48.20;;;;;;5075316;28;20253;-58
2021/09/28 12:42:07;;;;;;;2.40;2.20;;;15.90;48.30;;;;;;5077172;28;20233;-58
2021/09/28 12:44:38;;;;;;;3.65;2.45;;;15.90;48.30;;;;;;5073658;28;20709;-57
2021/09/28 12:47:31;;;;;;;2.60;2.28;;;15.90;48.30;;;;;;5073271;28;20285;-57
2021/09/28 12:50:16;;;;;;;2.72;1.95;;;15.80;48.30;;;;;;5070181;28;20195;-57
2021/09/28 12:52:48;;;;;;;3.78;2.53;;;15.80;48.30;;;;;;5073744;28;20245;-55
2021/09/28 12:55:19;;;;;;;2.60;2.10;;;15.80;48.30;;;;;;5073540;28;20671;-57
2021/09/28 12:57:49;;;;;;;3.08;2.33;;;15.80;48.30;;;;;;5073019;28;20787;-55
2021/09/28 13:00:19;;;;;;;3.33;2.05;;;15.80;48.30;;;;;;5073733;28;20600;-57
2021/09/28 13:02:50;;;;;;;2.20;2.00;;;15.80;48.40;;;;;;5073460;28;20249;-58
2021/09/28 13:05:23;;;;;;;2.10;1.90;;;15.70;48.30;;;;;;5073488;28;20288;-58
2021/09/28 13:07:56;;;;;;;2.92;2.10;;;15.70;48.30;;;;;;5073667;28;20271;-57
2021/09/28 13:10:27;;;;;;;2.78;2.00;;;15.70;48.30;;;;;;5073517;28;20230;-57
2021/09/28 13:12:57;;;;;;;2.80;2.00;;;15.70;48.30;;;;;;5072946;28;20230;-57
2021/09/28 13:15:28;;;;;;;2.53;2.03;;;15.60;48.40;;;;;;5072943;28;20273;-57
2021/09/28 13:17:58;;;;;;;2.67;1.77;;;15.60;48.40;;;;;;5073292;28;20254;-57
2021/09/28 13:20:28;;;;;;;2.28;2.08;;;15.60;48.40;;;;;;5073341;28;20257;-57
2021/09/28 13:23:01;;;;;;;2.38;1.80;;;15.60;48.40;;;;;;5073026;28;20615;-56